Thorntown, Indiana
Current Conditions -  °F | °C
As of 6:55 PM on Friday 28 Nov 2014 (Local Time) from KFKR Reporting Station
Clear Clear  
Wind Chill: 25°   Ceiling: Unl
Heat Index: 32°   Visibility: 10mi
Dew Point: 25°   Wind: 8mph
Humidity: 75%   Direction: 130°SE
Pressure: 30.07"   Gusts: NA
Location:  40.13°N, 86.61°W
Report Text: KFKR 282355Z AUTO 13007KT 10SM CLR 00/M04 A3007 RMK AO2 T10011040 10010 21008
Loading
Personal Weather Stations






























Interactive Weather Map New forecast layout! Learn more

10-Day Weather Forecast

Advertisements
Track Severe Weather on mobile